Oslo, Norway
Current Conditions -  °F | °C
As of 5:20 PM on Saturday 20 Dec 2014 (Local Time) from ENGM Reporting Station
Clear Clear  
Wind Chill: 25°   Ceiling: Unl
Heat Index: 25°   Visibility: 6mi
Dew Point: 21°   Wind: 3mph
Humidity: 86%   Direction: 340°NNW
Pressure: 29.35"   Gusts: NA
Location:  60.2°N, 11.08°E
Report Text: ENGM 201620Z 34003KT 280V040 CAVOK M04/M06 Q0994 NOSIG
Loading
Personal Weather Stations






























Interactive Weather Map New forecast layout! Learn more

10-Day Weather Forecast

Advertisements
Track Severe Weather on mobile